Dicle Deniz — TCWP2 — position and weather

sailwx.info

Track history (hours):
 
Tides and Currents Weather Stations Pressure Air Temp Water Temp Dewpoint Dewpoint Depression Visibility Wind Speed Wind Dir Waves Ship Positions

Dicle Deniz

Last reported at 2018-Apr-26 19:33 UTC. Time now 2018-Apr-26 20:56 UTC.
Position N 41°15' E 002°18'.

Length 88 m; draft 4.7 m.

Type: Ship. MMSI: 271040029.

Date/timePositionNaut miles runAvg speedWind from/ knotsBaromVisibWave heightAir tempDewpointWater temp
2018-Apr-26 19:33N 41°15' E 002°18'111.0
2018-Apr-26 19:28N 41°15' E 002°17'510.9
2018-Apr-26 19:01N 41°11' E 002°13'15310.5
2018-Apr-26 04:22N 39°27' W 000°15'3 8.1
2018-Apr-26 04:00N 39°26' W 000°18'1 0.1
2018-Apr-25 11:02N 39°27' W 000°19'0 0.2
2018-Apr-25 11:00N 39°27' W 000°19'2 3.8
2018-Apr-25 10:29N 39°25' W 000°17'2 0.0
2018-Apr-23 15:55N 39°24' W 000°16'4 8.6
2018-Apr-23 15:30N 39°27' W 000°13'5 9.4
2018-Apr-23 14:59N 39°30' W 000°08'120 9.3
2018-Apr-23 02:03N 40°52' E 001°48'1 9.4
2018-Apr-23 02:00N 40°52' E 001°48'5 9.2
2018-Apr-23 01:29N 40°55' E 001°53'5 9.1
2018-Apr-23 00:59N 40°58' E 001°58'4 8.8
2018-Apr-23 00:28N 41°01' E 002°02'4 9.4
2018-Apr-23 00:00N 41°04' E 002°06'5 9.8
2018-Apr-22 23:30N 41°07' E 002°11'5 9.4
2018-Apr-22 23:00N 41°10' E 002°16'5 9.3
2018-Apr-22 22:30N 41°14' E 002°20'5 9.3
2018-Apr-22 22:00N 41°17' E 002°25'4 9.0
2018-Apr-22 21:30N 41°20' E 002°30'5 9.1
2018-Apr-22 21:00N 41°22' E 002°34'137 9.0
2018-Apr-22 05:52N 42°30' E 005°14'91 9.1
2018-Apr-21 19:53N 43°13' E 007°03'4 9.2
2018-Apr-21 19:30N 43°15' E 007°08'5 9.3
2018-Apr-21 19:00N 43°17' E 007°13'5 8.6
2018-Apr-21 18:29N 43°19' E 007°19'5 8.8
2018-Apr-21 17:52N 43°21' E 007°26'3 8.8
2018-Apr-21 17:30N 43°22' E 007°29'4 8.9
2018-Apr-21 17:00N 43°24' E 007°35'3710.2
2018-Apr-21 13:24N 43°44' E 008°17'410.4
2018-Apr-21 13:00N 43°47' E 008°22'810.0
2018-Apr-21 12:15N 43°53' E 008°29'310.4
2018-Apr-21 11:59N 43°55' E 008°31'510.3
2018-Apr-21 11:30N 43°59' E 008°36'510.2
2018-Apr-21 11:01N 44°03' E 008°40'510.2
2018-Apr-21 10:30N 44°07' E 008°44'510.7
2018-Apr-21 10:00N 44°11' E 008°49'510.5
2018-Apr-21 09:31N 44°15' E 008°53'510.5
2018-Apr-21 09:00N 44°19' E 008°58'4 8.3
2018-Apr-21 08:31N 44°22' E 009°02'0 0.1
2018-Apr-21 07:58N 44°22' E 009°02'0 0.0
2018-Apr-21 07:28N 44°22' E 009°02'0 0.0
2018-Apr-21 06:58N 44°22' E 009°02'0 0.1
2018-Apr-21 06:28N 44°22' E 009°02'0 0.0
2018-Apr-21 05:58N 44°22' E 009°02'0 0.0
2018-Apr-21 05:25N 44°22' E 009°02'0 0.1
2018-Apr-21 04:58N 44°22' E 009°02'0 0.1
2018-Apr-21 04:28N 44°22' E 009°02'0 0.1
2018-Apr-21 03:58N 44°22' E 009°02'0 0.0
2018-Apr-21 03:28N 44°22' E 009°02'0 0.0
2018-Apr-21 02:58N 44°22' E 009°02'0 0.0
2018-Apr-21 02:28N 44°22' E 009°02'0 0.1
2018-Apr-21 01:52N 44°22' E 009°02'0 0.0
2018-Apr-21 01:25N 44°22' E 009°02'0 0.0
2018-Apr-21 00:55N 44°22' E 009°02'0 0.0
2018-Apr-21 00:16N 44°22' E 009°02'0 0.0
2018-Apr-20 23:49N 44°22' E 009°02'0 0.0
2018-Apr-20 23:28N 44°22' E 009°02'0 0.0
2018-Apr-20 22:58N 44°22' E 009°02'0 0.1
2018-Apr-20 22:28N 44°22' E 009°02'0 0.1
2018-Apr-20 21:58N 44°22' E 009°02'0 0.0
2018-Apr-20 21:25N 44°22' E 009°02'0 0.0
2018-Apr-20 20:52N 44°22' E 009°02'0 0.0
2018-Apr-20 20:25N 44°22' E 009°02'0 0.2
2018-Apr-20 19:55N 44°22' E 009°02'0 0.1
2018-Apr-20 19:28N 44°22' E 009°02'0 0.1
2018-Apr-20 18:55N 44°22' E 009°02'0 0.1
2018-Apr-20 18:25N 44°22' E 009°02'0 0.0
2018-Apr-20 17:55N 44°22' E 009°02'0 0.0
2018-Apr-20 17:28N 44°22' E 009°02'0 0.0
2018-Apr-20 16:58N 44°22' E 009°02'0 0.0
2018-Apr-20 16:28N 44°22' E 009°02'0 0.0
2018-Apr-20 15:58N 44°22' E 009°02'0 0.0
2018-Apr-20 15:28N 44°22' E 009°02'0 0.0
2018-Apr-20 14:58N 44°22' E 009°02'0 0.1
2018-Apr-20 14:28N 44°22' E 009°02'0 0.1
2018-Apr-20 13:58N 44°22' E 009°02'0 0.0
2018-Apr-20 13:28N 44°22' E 009°02'0 0.0
2018-Apr-20 12:58N 44°22' E 009°02'0 0.0
2018-Apr-20 12:28N 44°22' E 009°02'0 0.1
2018-Apr-20 11:58N 44°22' E 009°02'0 0.0
2018-Apr-20 11:28N 44°22' E 009°02'0 0.1
2018-Apr-20 10:58N 44°22' E 009°02'0 0.1
2018-Apr-20 10:22N 44°22' E 009°02'0 0.1
2018-Apr-20 09:58N 44°22' E 009°02'0 0.0
2018-Apr-20 09:28N 44°22' E 009°02'0 0.1
2018-Apr-20 08:58N 44°22' E 009°02'0 0.0
2018-Apr-20 08:28N 44°22' E 009°02'0 0.0
2018-Apr-20 07:58N 44°22' E 009°02'0 0.0
2018-Apr-20 07:28N 44°22' E 009°02'0 0.0
2018-Apr-20 06:58N 44°22' E 009°02'0 0.0
2018-Apr-20 06:28N 44°22' E 009°02'0 0.0
2018-Apr-20 05:58N 44°22' E 009°02'0 0.0
2018-Apr-20 05:28N 44°22' E 009°02'0 0.0
2018-Apr-20 04:58N 44°22' E 009°02'0 0.0
2018-Apr-20 04:28N 44°22' E 009°02'0 0.0
2018-Apr-20 03:58N 44°22' E 009°02'0 0.0
2018-Apr-20 03:28N 44°22' E 009°02'0 0.1
2018-Apr-20 02:58N 44°22' E 009°02'0 0.0
2018-Apr-20 02:28N 44°22' E 009°02'0 0.0
2018-Apr-20 01:58N 44°22' E 009°02'0 0.1
2018-Apr-20 01:28N 44°22' E 009°02'0 0.0
2018-Apr-20 00:58N 44°22' E 009°02'0 0.1
2018-Apr-20 00:28N 44°22' E 009°02'0 0.0
2018-Apr-19 23:52N 44°22' E 009°02'0 0.0
2018-Apr-19 23:22N 44°22' E 009°02'0 0.0
2018-Apr-19 22:58N 44°22' E 009°02'0 0.0
2018-Apr-19 22:28N 44°22' E 009°02'0 0.0
2018-Apr-19 21:58N 44°22' E 009°02'0 0.0
2018-Apr-19 21:28N 44°22' E 009°02'0 0.0
2018-Apr-19 20:58N 44°22' E 009°02'0 0.0
2018-Apr-19 20:25N 44°22' E 009°02'0 0.0
2018-Apr-19 19:58N 44°22' E 009°02'0 0.0
2018-Apr-19 19:28N 44°22' E 009°02'0 0.0
2018-Apr-19 18:58N 44°22' E 009°02'0 0.0
2018-Apr-19 18:28N 44°22' E 009°02'0 0.0
2018-Apr-19 17:58N 44°22' E 009°02'0 0.0
2018-Apr-19 17:28N 44°22' E 009°02'0 0.0
2018-Apr-19 16:58N 44°22' E 009°02'0 0.0
2018-Apr-19 16:28N 44°22' E 009°02'0 0.0
2018-Apr-19 15:58N 44°22' E 009°02'0 0.0
2018-Apr-19 15:28N 44°22' E 009°02'0 0.0
2018-Apr-19 14:58N 44°22' E 009°02'0 0.0
2018-Apr-19 14:28N 44°22' E 009°02'0 0.0
2018-Apr-19 13:58N 44°22' E 009°02'0 0.0
2018-Apr-19 13:28N 44°22' E 009°02'0 0.0
2018-Apr-19 12:58N 44°22' E 009°02'0 0.1
2018-Apr-19 12:19N 44°22' E 009°02'0 0.1
2018-Apr-19 11:58N 44°22' E 009°02'0 0.1
2018-Apr-19 11:22N 44°22' E 009°02'0 0.1
2018-Apr-19 10:58N 44°22' E 009°02'0 0.1
2018-Apr-19 10:22N 44°22' E 009°02'0 0.1
2018-Apr-19 09:58N 44°22' E 009°02'0 0.0
2018-Apr-19 09:28N 44°22' E 009°02'0 0.1
2018-Apr-19 08:58N 44°22' E 009°02'0 0.1
2018-Apr-19 08:22N 44°22' E 009°02'0 0.0
2018-Apr-19 07:58N 44°22' E 009°02'0 0.0
2018-Apr-19 07:28N 44°22' E 009°02'0 0.0
2018-Apr-19 06:58N 44°22' E 009°02'0 0.1
2018-Apr-19 06:28N 44°22' E 009°02'0 0.1
2018-Apr-19 05:58N 44°22' E 009°02'0 0.1
2018-Apr-19 05:28N 44°22' E 009°02'0 0.0
2018-Apr-19 04:58N 44°22' E 009°02'0 0.0
2018-Apr-19 04:28N 44°22' E 009°02'0 0.0
2018-Apr-19 03:55N 44°22' E 009°02'0 0.1
2018-Apr-19 03:25N 44°22' E 009°02'0 0.0
2018-Apr-19 02:58N 44°22' E 009°02'0 0.1
2018-Apr-19 02:28N 44°22' E 009°02'0 0.0
2018-Apr-19 01:58N 44°22' E 009°02'0 0.0
2018-Apr-19 01:28N 44°22' E 009°02'0 0.0
2018-Apr-19 00:58N 44°22' E 009°02'0 0.0
2018-Apr-19 00:22N 44°22' E 009°02'0 0.0
2018-Apr-18 23:58N 44°22' E 009°02'0 0.0
2018-Apr-18 23:25N 44°22' E 009°02'0 0.1
2018-Apr-18 22:52N 44°22' E 009°02'0 0.0
2018-Apr-18 22:28N 44°22' E 009°02'0 0.0
2018-Apr-18 21:58N 44°22' E 009°02'0 0.0
2018-Apr-18 21:19N 44°22' E 009°02'0 0.0
2018-Apr-18 20:58N 44°22' E 009°02'0 0.0
2018-Apr-18 20:22N 44°22' E 009°02'0 0.0
2018-Apr-18 19:58N 44°22' E 009°02'0 0.0
2018-Apr-18 19:28N 44°22' E 009°02'0 0.0
2018-Apr-18 18:58N 44°22' E 009°02'0 0.0
2018-Apr-18 18:28N 44°22' E 009°02'0 0.0
2018-Apr-18 17:58N 44°22' E 009°02'0 0.0
2018-Apr-18 17:28N 44°22' E 009°02'0 0.0
2018-Apr-18 16:58N 44°22' E 009°02'0 0.0
2018-Apr-18 16:28N 44°22' E 009°02'0 0.0
2018-Apr-18 15:58N 44°22' E 009°02'0 0.0
2018-Apr-18 15:28N 44°22' E 009°02'0 0.0
2018-Apr-18 14:58N 44°22' E 009°02'0 0.0
2018-Apr-18 14:28N 44°22' E 009°02'0 0.0
2018-Apr-18 13:58N 44°22' E 009°02'0 0.0
2018-Apr-18 13:28N 44°22' E 009°02'0 0.0
2018-Apr-18 12:58N 44°22' E 009°02'0 0.0
2018-Apr-18 12:28N 44°22' E 009°02'0 0.0
2018-Apr-18 11:58N 44°22' E 009°02'0 0.0
2018-Apr-18 11:28N 44°22' E 009°02'0 0.0
2018-Apr-18 10:58N 44°22' E 009°02'0 0.0
2018-Apr-18 10:28N 44°22' E 009°02'0 0.0
2018-Apr-18 09:58N 44°22' E 009°02'0 0.0
2018-Apr-18 09:28N 44°22' E 009°02'0 0.0
2018-Apr-18 08:58N 44°22' E 009°02'0 0.0
2018-Apr-18 08:28N 44°22' E 009°02'0 0.1
2018-Apr-18 07:58N 44°22' E 009°02'0 0.0
2018-Apr-18 07:28N 44°22' E 009°02'0 0.0
2018-Apr-18 06:55N 44°22' E 009°02'0 0.0
2018-Apr-18 06:22N 44°22' E 009°02'0 0.0
2018-Apr-18 05:58N 44°22' E 009°02'0 0.1
2018-Apr-18 05:25N 44°22' E 009°02'0 0.1
2018-Apr-18 04:58N 44°22' E 009°02'0 0.0
2018-Apr-18 04:25N 44°22' E 009°02'0 0.0
2018-Apr-18 03:55N 44°22' E 009°02'0 0.0
2018-Apr-18 03:25N 44°22' E 009°02'0 0.0
2018-Apr-18 02:55N 44°22' E 009°02'0 0.2
2018-Apr-18 02:22N 44°22' E 009°02'0 0.1
2018-Apr-18 01:58N 44°22' E 009°02'0 0.0
2018-Apr-18 01:28N 44°22' E 009°02'0 0.1
2018-Apr-18 00:58N 44°22' E 009°02'0 0.0
2018-Apr-18 00:16N 44°22' E 009°02'0 0.1
2018-Apr-17 23:58N 44°22' E 009°02'0 0.0
2018-Apr-17 23:25N 44°22' E 009°02'0 0.0
2018-Apr-17 22:58N 44°22' E 009°02'0 0.0
2018-Apr-17 22:28N 44°22' E 009°02'0 0.0
2018-Apr-17 21:55N 44°22' E 009°02'0 0.0
2018-Apr-17 21:28N 44°22' E 009°02'0 0.1
2018-Apr-17 20:58N 44°22' E 009°02'0 0.0
2018-Apr-17 20:28N 44°22' E 009°02'0 0.0
2018-Apr-17 19:58N 44°22' E 009°02'0 0.1
2018-Apr-17 19:28N 44°22' E 009°02'0 0.1
2018-Apr-17 18:58N 44°22' E 009°02'0 0.0
2018-Apr-17 18:28N 44°22' E 009°02'0 0.0
2018-Apr-17 17:58N 44°22' E 009°02'0 0.0
2018-Apr-17 17:28N 44°22' E 009°02'0 0.0
2018-Apr-17 16:58N 44°22' E 009°02'0 0.0
2018-Apr-17 16:22N 44°22' E 009°02'0 0.0
2018-Apr-17 15:52N 44°22' E 009°02'0 0.0
2018-Apr-17 15:28N 44°22' E 009°02'0 0.0
2018-Apr-17 14:58N 44°22' E 009°02'0 0.0
2018-Apr-17 14:28N 44°22' E 009°02'0 0.0
2018-Apr-17 13:58N 44°22' E 009°02'0 0.0
2018-Apr-17 13:25N 44°22' E 009°02'0 0.0
2018-Apr-17 12:55N 44°22' E 009°02'0 0.0
2018-Apr-17 12:25N 44°22' E 009°02'0 0.0
2018-Apr-17 11:58N 44°22' E 009°02'0 0.0
2018-Apr-17 11:28N 44°22' E 009°02'0 0.0
2018-Apr-17 10:58N 44°22' E 009°02'0 0.0
2018-Apr-17 10:28N 44°22' E 009°02'0 0.0
2018-Apr-17 09:55N 44°22' E 009°02'0 0.0
2018-Apr-17 09:28N 44°22' E 009°02'0 0.0
2018-Apr-17 08:58N 44°22' E 009°02'0 0.0
2018-Apr-17 08:28N 44°22' E 009°02'0 0.0
2018-Apr-17 07:58N 44°22' E 009°02'0 0.0
2018-Apr-17 07:28N 44°22' E 009°02'0 0.0
2018-Apr-17 06:58N 44°22' E 009°02'0 0.0
2018-Apr-17 06:28N 44°22' E 009°02'0 0.0
2018-Apr-17 05:58N 44°22' E 009°02'0 0.0
2018-Apr-17 05:28N 44°22' E 009°02'0 0.0
2018-Apr-17 04:58N 44°22' E 009°02'0 0.0
2018-Apr-17 04:22N 44°22' E 009°02'0 0.0
2018-Apr-17 03:52N 44°22' E 009°02'0 0.0
2018-Apr-17 03:19N 44°22' E 009°02'0 0.0
2018-Apr-17 02:58N 44°22' E 009°02'0 0.0
2018-Apr-17 02:28N 44°22' E 009°02'0 0.0
2018-Apr-17 01:52N 44°22' E 009°02'0 0.0
2018-Apr-17 01:28N 44°22' E 009°02'0 0.0
2018-Apr-17 00:58N 44°22' E 009°02'0 0.0
2018-Apr-17 00:28N 44°22' E 009°02'0 0.0
2018-Apr-16 23:49N 44°22' E 009°02'0 0.1
2018-Apr-16 23:28N 44°22' E 009°02'0 0.0
2018-Apr-16 22:55N 44°22' E 009°02'0 0.0
2018-Apr-16 22:28N 44°22' E 009°02'0 0.0
2018-Apr-16 21:58N 44°22' E 009°02'0 0.0
2018-Apr-16 21:28N 44°22' E 009°02'0 0.0
2018-Apr-16 20:58N 44°22' E 009°02'0 0.0
2018-Apr-16 20:28N 44°22' E 009°02'0 0.0
2018-Apr-16 19:58N 44°22' E 009°02'  
Track history (hours):
 
Tides and Currents Weather Stations Pressure Air Temp Water Temp Dewpoint Dewpoint Depression Visibility Wind Speed Wind Dir Waves Ship Positions

Dicle Deniz

Last reported at 2018-Apr-26 19:33 UTC. Time now 2018-Apr-26 20:56 UTC.
Position N 41°15' E 002°18'.

Length 88 m; draft 4.7 m.

Type: Ship. MMSI: 271040029.

Date/timePositionNaut miles runAvg speedWind from/ knotsBaromVisibWave heightAir tempDewpointWater temp
2018-Apr-26 19:33N 41°15' E 002°18'111.0
2018-Apr-26 19:28N 41°15' E 002°17'510.9
2018-Apr-26 19:01N 41°11' E 002°13'15310.5
2018-Apr-26 04:22N 39°27' W 000°15'3 8.1
2018-Apr-26 04:00N 39°26' W 000°18'1 0.1
2018-Apr-25 11:02N 39°27' W 000°19'0 0.2
2018-Apr-25 11:00N 39°27' W 000°19'2 3.8
2018-Apr-25 10:29N 39°25' W 000°17'2 0.0
2018-Apr-23 15:55N 39°24' W 000°16'4 8.6
2018-Apr-23 15:30N 39°27' W 000°13'5 9.4
2018-Apr-23 14:59N 39°30' W 000°08'120 9.3
2018-Apr-23 02:03N 40°52' E 001°48'1 9.4
2018-Apr-23 02:00N 40°52' E 001°48'5 9.2
2018-Apr-23 01:29N 40°55' E 001°53'5 9.1
2018-Apr-23 00:59N 40°58' E 001°58'4 8.8
2018-Apr-23 00:28N 41°01' E 002°02'4 9.4
2018-Apr-23 00:00N 41°04' E 002°06'5 9.8
2018-Apr-22 23:30N 41°07' E 002°11'5 9.4
2018-Apr-22 23:00N 41°10' E 002°16'5 9.3
2018-Apr-22 22:30N 41°14' E 002°20'5 9.3
2018-Apr-22 22:00N 41°17' E 002°25'4 9.0
2018-Apr-22 21:30N 41°20' E 002°30'5 9.1
2018-Apr-22 21:00N 41°22' E 002°34'137 9.0
2018-Apr-22 05:52N 42°30' E 005°14'91 9.1
2018-Apr-21 19:53N 43°13' E 007°03'4 9.2
2018-Apr-21 19:30N 43°15' E 007°08'5 9.3
2018-Apr-21 19:00N 43°17' E 007°13'5 8.6
2018-Apr-21 18:29N 43°19' E 007°19'5 8.8
2018-Apr-21 17:52N 43°21' E 007°26'3 8.8
2018-Apr-21 17:30N 43°22' E 007°29'4 8.9
2018-Apr-21 17:00N 43°24' E 007°35'3710.2
2018-Apr-21 13:24N 43°44' E 008°17'410.4
2018-Apr-21 13:00N 43°47' E 008°22'810.0
2018-Apr-21 12:15N 43°53' E 008°29'310.4
2018-Apr-21 11:59N 43°55' E 008°31'510.3
2018-Apr-21 11:30N 43°59' E 008°36'510.2
2018-Apr-21 11:01N 44°03' E 008°40'510.2
2018-Apr-21 10:30N 44°07' E 008°44'510.7
2018-Apr-21 10:00N 44°11' E 008°49'510.5
2018-Apr-21 09:31N 44°15' E 008°53'510.5
2018-Apr-21 09:00N 44°19' E 008°58'4 8.3
2018-Apr-21 08:31N 44°22' E 009°02'0 0.1
2018-Apr-21 07:58N 44°22' E 009°02'0 0.0
2018-Apr-21 07:28N 44°22' E 009°02'0 0.0
2018-Apr-21 06:58N 44°22' E 009°02'0 0.1
2018-Apr-21 06:28N 44°22' E 009°02'0 0.0
2018-Apr-21 05:58N 44°22' E 009°02'0 0.0
2018-Apr-21 05:25N 44°22' E 009°02'0 0.1
2018-Apr-21 04:58N 44°22' E 009°02'0 0.1
2018-Apr-21 04:28N 44°22' E 009°02'0 0.1
2018-Apr-21 03:58N 44°22' E 009°02'0 0.0
2018-Apr-21 03:28N 44°22' E 009°02'0 0.0
2018-Apr-21 02:58N 44°22' E 009°02'0 0.0
2018-Apr-21 02:28N 44°22' E 009°02'0 0.1
2018-Apr-21 01:52N 44°22' E 009°02'0 0.0
2018-Apr-21 01:25N 44°22' E 009°02'0 0.0
2018-Apr-21 00:55N 44°22' E 009°02'0 0.0
2018-Apr-21 00:16N 44°22' E 009°02'0 0.0
2018-Apr-20 23:49N 44°22' E 009°02'0 0.0
2018-Apr-20 23:28N 44°22' E 009°02'0 0.0
2018-Apr-20 22:58N 44°22' E 009°02'0 0.1
2018-Apr-20 22:28N 44°22' E 009°02'0 0.1
2018-Apr-20 21:58N 44°22' E 009°02'0 0.0
2018-Apr-20 21:25N 44°22' E 009°02'0 0.0
2018-Apr-20 20:52N 44°22' E 009°02'0 0.0
2018-Apr-20 20:25N 44°22' E 009°02'0 0.2
2018-Apr-20 19:55N 44°22' E 009°02'0 0.1
2018-Apr-20 19:28N 44°22' E 009°02'0 0.1
2018-Apr-20 18:55N 44°22' E 009°02'0 0.1
2018-Apr-20 18:25N 44°22' E 009°02'0 0.0
2018-Apr-20 17:55N 44°22' E 009°02'0 0.0
2018-Apr-20 17:28N 44°22' E 009°02'0 0.0
2018-Apr-20 16:58N 44°22' E 009°02'0 0.0
2018-Apr-20 16:28N 44°22' E 009°02'0 0.0
2018-Apr-20 15:58N 44°22' E 009°02'0 0.0
2018-Apr-20 15:28N 44°22' E 009°02'0 0.0
2018-Apr-20 14:58N 44°22' E 009°02'0 0.1
2018-Apr-20 14:28N 44°22' E 009°02'0 0.1
2018-Apr-20 13:58N 44°22' E 009°02'0 0.0
2018-Apr-20 13:28N 44°22' E 009°02'0 0.0
2018-Apr-20 12:58N 44°22' E 009°02'0 0.0
2018-Apr-20 12:28N 44°22' E 009°02'0 0.1
2018-Apr-20 11:58N 44°22' E 009°02'0 0.0
2018-Apr-20 11:28N 44°22' E 009°02'0 0.1
2018-Apr-20 10:58N 44°22' E 009°02'0 0.1
2018-Apr-20 10:22N 44°22' E 009°02'0 0.1
2018-Apr-20 09:58N 44°22' E 009°02'0 0.0
2018-Apr-20 09:28N 44°22' E 009°02'0 0.1
2018-Apr-20 08:58N 44°22' E 009°02'0 0.0
2018-Apr-20 08:28N 44°22' E 009°02'0 0.0
2018-Apr-20 07:58N 44°22' E 009°02'0 0.0
2018-Apr-20 07:28N 44°22' E 009°02'0 0.0
2018-Apr-20 06:58N 44°22' E 009°02'0 0.0
2018-Apr-20 06:28N 44°22' E 009°02'0 0.0
2018-Apr-20 05:58N 44°22' E 009°02'0 0.0
2018-Apr-20 05:28N 44°22' E 009°02'0 0.0
2018-Apr-20 04:58N 44°22' E 009°02'0 0.0
2018-Apr-20 04:28N 44°22' E 009°02'0 0.0
2018-Apr-20 03:58N 44°22' E 009°02'0 0.0
2018-Apr-20 03:28N 44°22' E 009°02'0 0.1
2018-Apr-20 02:58N 44°22' E 009°02'0 0.0
2018-Apr-20 02:28N 44°22' E 009°02'0 0.0
2018-Apr-20 01:58N 44°22' E 009°02'0 0.1
2018-Apr-20 01:28N 44°22' E 009°02'0 0.0
2018-Apr-20 00:58N 44°22' E 009°02'0 0.1
2018-Apr-20 00:28N 44°22' E 009°02'0 0.0
2018-Apr-19 23:52N 44°22' E 009°02'0 0.0
2018-Apr-19 23:22N 44°22' E 009°02'0 0.0
2018-Apr-19 22:58N 44°22' E 009°02'0 0.0
2018-Apr-19 22:28N 44°22' E 009°02'0 0.0
2018-Apr-19 21:58N 44°22' E 009°02'0 0.0
2018-Apr-19 21:28N 44°22' E 009°02'0 0.0
2018-Apr-19 20:58N 44°22' E 009°02'0 0.0
2018-Apr-19 20:25N 44°22' E 009°02'0 0.0
2018-Apr-19 19:58N 44°22' E 009°02'0 0.0
2018-Apr-19 19:28N 44°22' E 009°02'0 0.0
2018-Apr-19 18:58N 44°22' E 009°02'0 0.0
2018-Apr-19 18:28N 44°22' E 009°02'0 0.0
2018-Apr-19 17:58N 44°22' E 009°02'0 0.0
2018-Apr-19 17:28N 44°22' E 009°02'0 0.0
2018-Apr-19 16:58N 44°22' E 009°02'0 0.0
2018-Apr-19 16:28N 44°22' E 009°02'0 0.0
2018-Apr-19 15:58N 44°22' E 009°02'0 0.0
2018-Apr-19 15:28N 44°22' E 009°02'0 0.0
2018-Apr-19 14:58N 44°22' E 009°02'0 0.0
2018-Apr-19 14:28N 44°22' E 009°02'0 0.0
2018-Apr-19 13:58N 44°22' E 009°02'0 0.0
2018-Apr-19 13:28N 44°22' E 009°02'0 0.0
2018-Apr-19 12:58N 44°22' E 009°02'0 0.1
2018-Apr-19 12:19N 44°22' E 009°02'0 0.1
2018-Apr-19 11:58N 44°22' E 009°02'0 0.1
2018-Apr-19 11:22N 44°22' E 009°02'0 0.1
2018-Apr-19 10:58N 44°22' E 009°02'0 0.1
2018-Apr-19 10:22N 44°22' E 009°02'0 0.1
2018-Apr-19 09:58N 44°22' E 009°02'0 0.0
2018-Apr-19 09:28N 44°22' E 009°02'0 0.1
2018-Apr-19 08:58N 44°22' E 009°02'0 0.1
2018-Apr-19 08:22N 44°22' E 009°02'0 0.0
2018-Apr-19 07:58N 44°22' E 009°02'0 0.0
2018-Apr-19 07:28N 44°22' E 009°02'0 0.0
2018-Apr-19 06:58N 44°22' E 009°02'0 0.1
2018-Apr-19 06:28N 44°22' E 009°02'0 0.1
2018-Apr-19 05:58N 44°22' E 009°02'0 0.1
2018-Apr-19 05:28N 44°22' E 009°02'0 0.0
2018-Apr-19 04:58N 44°22' E 009°02'0 0.0
2018-Apr-19 04:28N 44°22' E 009°02'0 0.0
2018-Apr-19 03:55N 44°22' E 009°02'0 0.1
2018-Apr-19 03:25N 44°22' E 009°02'0 0.0
2018-Apr-19 02:58N 44°22' E 009°02'0 0.1
2018-Apr-19 02:28N 44°22' E 009°02'0 0.0
2018-Apr-19 01:58N 44°22' E 009°02'0 0.0
2018-Apr-19 01:28N 44°22' E 009°02'0 0.0
2018-Apr-19 00:58N 44°22' E 009°02'0 0.0
2018-Apr-19 00:22N 44°22' E 009°02'0 0.0
2018-Apr-18 23:58N 44°22' E 009°02'0 0.0
2018-Apr-18 23:25N 44°22' E 009°02'0 0.1
2018-Apr-18 22:52N 44°22' E 009°02'0 0.0
2018-Apr-18 22:28N 44°22' E 009°02'0 0.0
2018-Apr-18 21:58N 44°22' E 009°02'0 0.0
2018-Apr-18 21:19N 44°22' E 009°02'0 0.0
2018-Apr-18 20:58N 44°22' E 009°02'0 0.0
2018-Apr-18 20:22N 44°22' E 009°02'0 0.0
2018-Apr-18 19:58N 44°22' E 009°02'0 0.0
2018-Apr-18 19:28N 44°22' E 009°02'0 0.0
2018-Apr-18 18:58N 44°22' E 009°02'0 0.0
2018-Apr-18 18:28N 44°22' E 009°02'0 0.0
2018-Apr-18 17:58N 44°22' E 009°02'0 0.0
2018-Apr-18 17:28N 44°22' E 009°02'0 0.0
2018-Apr-18 16:58N 44°22' E 009°02'0 0.0
2018-Apr-18 16:28N 44°22' E 009°02'0 0.0
2018-Apr-18 15:58N 44°22' E 009°02'0 0.0
2018-Apr-18 15:28N 44°22' E 009°02'0 0.0
2018-Apr-18 14:58N 44°22' E 009°02'0 0.0
2018-Apr-18 14:28N 44°22' E 009°02'0 0.0
2018-Apr-18 13:58N 44°22' E 009°02'0 0.0
2018-Apr-18 13:28N 44°22' E 009°02'0 0.0
2018-Apr-18 12:58N 44°22' E 009°02'0 0.0
2018-Apr-18 12:28N 44°22' E 009°02'0 0.0
2018-Apr-18 11:58N 44°22' E 009°02'0 0.0
2018-Apr-18 11:28N 44°22' E 009°02'0 0.0
2018-Apr-18 10:58N 44°22' E 009°02'0 0.0
2018-Apr-18 10:28N 44°22' E 009°02'0 0.0
2018-Apr-18 09:58N 44°22' E 009°02'0 0.0
2018-Apr-18 09:28N 44°22' E 009°02'0 0.0
2018-Apr-18 08:58N 44°22' E 009°02'0 0.0
2018-Apr-18 08:28N 44°22' E 009°02'0 0.1
2018-Apr-18 07:58N 44°22' E 009°02'0 0.0
2018-Apr-18 07:28N 44°22' E 009°02'0 0.0
2018-Apr-18 06:55N 44°22' E 009°02'0 0.0
2018-Apr-18 06:22N 44°22' E 009°02'0 0.0
2018-Apr-18 05:58N 44°22' E 009°02'0 0.1
2018-Apr-18 05:25N 44°22' E 009°02'0 0.1
2018-Apr-18 04:58N 44°22' E 009°02'0 0.0
2018-Apr-18 04:25N 44°22' E 009°02'0 0.0
2018-Apr-18 03:55N 44°22' E 009°02'0 0.0
2018-Apr-18 03:25N 44°22' E 009°02'0 0.0
2018-Apr-18 02:55N 44°22' E 009°02'0 0.2
2018-Apr-18 02:22N 44°22' E 009°02'0 0.1
2018-Apr-18 01:58N 44°22' E 009°02'0 0.0
2018-Apr-18 01:28N 44°22' E 009°02'0 0.1
2018-Apr-18 00:58N 44°22' E 009°02'0 0.0
2018-Apr-18 00:16N 44°22' E 009°02'0 0.1
2018-Apr-17 23:58N 44°22' E 009°02'0 0.0
2018-Apr-17 23:25N 44°22' E 009°02'0 0.0
2018-Apr-17 22:58N 44°22' E 009°02'0 0.0
2018-Apr-17 22:28N 44°22' E 009°02'0 0.0
2018-Apr-17 21:55N 44°22' E 009°02'0 0.0
2018-Apr-17 21:28N 44°22' E 009°02'0 0.1
2018-Apr-17 20:58N 44°22' E 009°02'0 0.0
2018-Apr-17 20:28N 44°22' E 009°02'0 0.0
2018-Apr-17 19:58N 44°22' E 009°02'0 0.1
2018-Apr-17 19:28N 44°22' E 009°02'0 0.1
2018-Apr-17 18:58N 44°22' E 009°02'0 0.0
2018-Apr-17 18:28N 44°22' E 009°02'0 0.0
2018-Apr-17 17:58N 44°22' E 009°02'0 0.0
2018-Apr-17 17:28N 44°22' E 009°02'0 0.0
2018-Apr-17 16:58N 44°22' E 009°02'0 0.0
2018-Apr-17 16:22N 44°22' E 009°02'0 0.0
2018-Apr-17 15:52N 44°22' E 009°02'0 0.0
2018-Apr-17 15:28N 44°22' E 009°02'0 0.0
2018-Apr-17 14:58N 44°22' E 009°02'0 0.0
2018-Apr-17 14:28N 44°22' E 009°02'0 0.0
2018-Apr-17 13:58N 44°22' E 009°02'0 0.0
2018-Apr-17 13:25N 44°22' E 009°02'0 0.0
2018-Apr-17 12:55N 44°22' E 009°02'0 0.0
2018-Apr-17 12:25N 44°22' E 009°02'0 0.0
2018-Apr-17 11:58N 44°22' E 009°02'0 0.0
2018-Apr-17 11:28N 44°22' E 009°02'0 0.0
2018-Apr-17 10:58N 44°22' E 009°02'0 0.0
2018-Apr-17 10:28N 44°22' E 009°02'0 0.0
2018-Apr-17 09:55N 44°22' E 009°02'0 0.0
2018-Apr-17 09:28N 44°22' E 009°02'0 0.0
2018-Apr-17 08:58N 44°22' E 009°02'0 0.0
2018-Apr-17 08:28N 44°22' E 009°02'0 0.0
2018-Apr-17 07:58N 44°22' E 009°02'0 0.0
2018-Apr-17 07:28N 44°22' E 009°02'0 0.0
2018-Apr-17 06:58N 44°22' E 009°02'0 0.0
2018-Apr-17 06:28N 44°22' E 009°02'0 0.0
2018-Apr-17 05:58N 44°22' E 009°02'0 0.0
2018-Apr-17 05:28N 44°22' E 009°02'0 0.0
2018-Apr-17 04:58N 44°22' E 009°02'0 0.0
2018-Apr-17 04:22N 44°22' E 009°02'0 0.0
2018-Apr-17 03:52N 44°22' E 009°02'0 0.0
2018-Apr-17 03:19N 44°22' E 009°02'0 0.0
2018-Apr-17 02:58N 44°22' E 009°02'0 0.0
2018-Apr-17 02:28N 44°22' E 009°02'0 0.0
2018-Apr-17 01:52N 44°22' E 009°02'0 0.0
2018-Apr-17 01:28N 44°22' E 009°02'0 0.0
2018-Apr-17 00:58N 44°22' E 009°02'0 0.0
2018-Apr-17 00:28N 44°22' E 009°02'0 0.0
2018-Apr-16 23:49N 44°22' E 009°02'0 0.1
2018-Apr-16 23:28N 44°22' E 009°02'0 0.0
2018-Apr-16 22:55N 44°22' E 009°02'0 0.0
2018-Apr-16 22:28N 44°22' E 009°02'0 0.0
2018-Apr-16 21:58N 44°22' E 009°02'0 0.0
2018-Apr-16 21:28N 44°22' E 009°02'0 0.0
2018-Apr-16 20:58N 44°22' E 009°02'0 0.0
2018-Apr-16 20:28N 44°22' E 009°02'0 0.0
2018-Apr-16 19:58N 44°22' E 009°02'  

Dump ship's entire track history